Bradford, IL (61421)

3:37 PM CDT on May 27, 2015 (GMT -0500)
Stark County News | | Change Station
CLOSE
Current Station
Personal Weather Station
Location: Toulon, IL
Elevation: 735 ft
Nearby Weather Stations

Elev 735 ft 41.09 °N, 89.86 °W | Updated 5 minutes ago

Partly Cloudy
Partly Cloudy
80.2 °F
Feels Like 87 °F
N
8.3
Wind Variable Wind from NNW

Today
High -- | Low -- °F
--% Chance of Precip.
Yesterday
High -- | Low -- °F
Precip. -- in
5:31 AM 8:20 PM
Waxing Gibbous, 70% visible
Pressure 30.04 in
Visibility 10.0 miles
Clouds Scattered Clouds 5000 ft
Scattered Clouds 10000 ft
Heat Index 87 °F
Dew Point 78 °F
Humidity 93%
Rainfall 0.00 in
Snow Depth Not available.
UV 7 out of 12
Pollen 9.20 out of 12
Air Quality Not available.
Flu Activity Sporadic
METAR KC75 272015Z AUTO 32008KT 10SM SCT050 SCT100 24/14 A3004 RMK AO2 T02420136

More Conditions Fewer Conditions

Pressure 30.04 in
Visibility 10.0 miles
Clouds Scattered Clouds 5000 ft
Scattered Clouds 10000 ft
Heat Index 87 °F
Dew Point 78 °F
Humidity 93%
Rainfall 0.00 in
Snow Depth Not available.
UV 7 out of 12
Pollen 9.20 out of 12
Air Quality Not available.
Flu Activity Sporadic
METAR KC75 272015Z AUTO 32008KT 10SM SCT050 SCT100 24/14 A3004 RMK AO2 T02420136

More Conditions Fewer Conditions

10-Day Weather Forecast

Almanac

Astronomy

May. 27, 2015 Rise Set
Actual Time
Civil Twilight
Nautical Twilight
Astronomical Twilight
Moon
Length of Visible Light
Length of Day
Tomorrow will be .
, % of the Moon is Illuminated

Today's Extremes

State Highs State Lows

Community

WunderPhotos

Upload Photos

1,824,782 photos uploaded!

WunderBlogs® & News

Nearby

Air Quality

  Air Quality AQ Index Pollutant
Not available.

Snow Depth

Station Depth Elevation

Earthquake Activity

City Distance Mag. Time & Date
Minimum magnitude displayed is 2.5.

Coastal Water Temperatures

Place Temperature

Stations

Nearby Weather Stations

Station Location Temp. Windchill Dew Point Humidity Wind Precip. Elev Updated Type